Terminal Aerodrome Forecast
Issued by NWS Duluth, MN

Home | Current Version | Previous Version | Text Only | Print | Product List | Glossary On
Versions: 1 2 3 4 5 6 7 8 9 10 11 12 13 14 15 16 17 18 19 20 21 22
107
FTUS43 KDLH 060537
TAFINL
TAF
KINL 060537Z 0606/0706 25007KT P6SM OVC070
     FM061400 14007KT 5SM -SN OVC015
     FM062000 15008KT 1SM -SN OVC012=

USA.gov is the U.S. government's official web portal to all federal, state and local government web resources and services.